Latest Coastal Weather Observations for Montague Island

IDN60701

Issued at 8:21 am EST Saturday 29 August 2015 (issued every 10 minutes, with the page automatically refreshed every 10 minutes)

About coastal observations | Map of coastal stations | Coastal observations for NSW | Marine services | Other Formats
Station Details ID: 069017 Name: MONTAGUE ISLAND LIGHTHOUSE Lat: -36.25 Lon: 150.23 Height: 52.0 m
Data from the previous 72 hours. | See also: Recent months at Montague Island
Date/Time
EST
Temp

°C
Wind Pressure Rain
since 9am
mm
Weather Cloud Vis
km
Sea
Height
m
Swell
Dir
 
Speed
knots
Gust
knots
hPa Trend Height
m
Period
s
Dir
29/08:00am 10.6 SW 15 19 1021.5 - 0.4 - - - - - - -
29/07:30am 10.9 SW 10 14 1021.5 - 0.4 - - - - - - -
29/07:00am 10.7 SSW 10 14 1021.4 - 0.4 - - - - - - -
29/06:30am 10.3 SW 6 8 1021.1 - 0.4 - - - - - - -
29/06:00am 10.3 SW 8 11 1021.0 - 0.4 - - - - - - -
29/05:30am 10.3 SW 7 9 1020.9 - 0.4 - - - - - - -
29/05:00am 10.1 W 6 7 1020.9 - 0.4 - - - - - - -
29/04:30am 10.3 W 4 6 1021.0 - 0.4 - - - - - - -
29/04:00am 10.5 SW 5 7 1021.1 - 0.4 - - - - - - -
29/03:30am 10.1 SW 7 9 1020.9 - 0.4 - - - - - - -
29/03:00am 10.3 SW 9 12 1021.2 - 0.4 Rain - - - - - -
29/02:30am 10.4 SW 7 9 1021.5 - 0.2 - - - - - - -
29/02:00am 10.5 WSW 7 8 1021.9 - 0.0 - - - - - - -
29/01:30am 10.7 WSW 8 11 1022.1 - 0.0 - - - - - - -
29/01:00am 11.0 SW 10 13 1022.0 - 0.0 - - - - - - -
29/12:30am 11.0 SW 11 14 1022.0 - 0.0 - - - - - - -
29/12:00am 11.4 SSW 15 19 1022.0 - 0.0 - - - - - - -
 
Date/Time
EST
Temp

°C
Wind Pressure Rain
since 9am
mm
Weather Cloud Vis
km
Sea
Height
m
Swell
Dir
 
Speed
knots
Gust
knots
hPa Trend Height
m
Period
s
Dir
28/11:30pm 11.2 SSW 17 22 1021.9 - 0.0 - - - - - - -
28/11:00pm 11.3 SSW 17 23 1022.1 - 0.0 - - - - - - -
28/10:30pm 11.6 SSW 19 25 1022.3 - 0.0 - - - - - - -
28/10:00pm 11.7 SSW 22 26 1022.3 - 0.0 - - - - - - -
28/09:30pm 11.8 SSW 22 26 1022.3 - 0.0 - - - - - - -
28/09:00pm 12.1 SSW 21 27 1022.2 - 0.0 - - - - - - -
28/08:30pm 11.9 SSW 22 26 1022.0 - 0.0 - - - - - - -
28/08:00pm 12.2 SSW 21 25 1022.0 - 0.0 - - - - - - -
28/07:30pm 12.2 SSW 23 28 1021.7 - 0.0 - - - - - - -
28/07:00pm 12.4 S 23 29 1021.0 - 0.0 - - - - - - -
28/06:30pm 12.6 SSW 24 29 1020.7 - 0.0 - - - - - - -
28/06:00pm 12.7 SSW 23 28 1020.5 - 0.0 - - - - - - -
28/05:30pm 12.9 SSW 22 28 1020.1 - 0.0 - - - - - - -
28/05:00pm 12.9 S 25 30 1019.6 - 0.0 - - - - - - -
28/04:30pm 13.3 S 24 29 1019.3 - 0.0 - - - - - - -
28/04:00pm 13.7 SSW 23 29 1019.2 - 0.0 - - - - - - -
28/03:30pm 13.9 SSW 24 28 1019.1 - 0.0 - - - - - - -
28/03:00pm 14.0 SSW 24 28 1018.9 - 0.0 - - - - - - -
28/02:30pm 14.9 SSW 24 28 1018.8 - 0.0 - - - - - - -
28/02:00pm 15.4 SSW 20 24 1018.6 - 0.0 - - - - - - -
28/01:30pm 15.2 SSW 16 21 1018.6 - 0.0 - - - - - - -
28/01:00pm 15.1 SSW 25 31 1018.2 - 0.0 - - - - - - -
28/12:30pm 15.2 SW 20 24 1018.5 - 0.0 - - - - - - -
28/12:00pm 15.4 SW 19 23 1018.7 - 0.0 - - - - - - -
28/11:30am 14.9 SW 23 30 1019.0 - 0.0 - - - - - - -
28/11:01am 13.0 SW 22 33 1019.2 - 0.0 - - - - - - -
28/11:00am 13.2 SW 23 33 1019.2 - 0.0 - - - - - - -
28/10:30am 14.5 SW 24 29 1018.8 - 0.0 - - - - - - -
28/10:00am 15.0 SW 24 30 1018.4 - 0.0 - - - - - - -
28/09:30am 14.8 SW 27 34 1017.6 - 0.0 - - - - - - -
28/09:00am 14.2 SW 27 33 1017.5 - 10.2 - - - - - - -
28/08:30am 13.4 SW 25 31 1017.5 - 10.2 - - - - - - -
28/08:00am 12.6 WSW 24 28 1017.1 - 10.2 - - - - - - -
28/07:30am 12.6 WSW 25 30 1016.6 - 10.2 - - - - - - -
28/07:00am 12.5 WSW 25 32 1016.1 - 10.2 - - - - - - -
28/06:30am 12.3 WSW 23 29 1015.6 - 10.2 - - - - - - -
28/06:00am 11.6 WSW 23 29 1015.3 - 10.0 Recent precip. - - - - - -
28/05:30am 11.0 W 20 24 1014.8 - 9.2 - - - - - - -
28/05:00am 11.0 W 21 29 1014.6 - 7.6 - - - - - - -
28/04:30am 11.2 W 22 27 1014.3 - 6.0 - - - - - - -
28/04:00am 11.4 W 22 26 1014.1 - 5.0 - - - - - - -
28/03:30am 12.0 W 17 21 1014.2 - 5.0 - - - - - - -
28/03:00am 12.9 WSW 22 28 1014.2 - 4.8 - - - - - - -
28/02:30am 13.2 W 17 20 1014.4 - 4.8 - - - - - - -
28/02:00am 13.3 WSW 16 19 1014.5 - 4.8 - - - - - - -
28/01:30am 12.7 W 12 14 1014.8 - 4.8 - - - - - - -
28/01:00am 12.7 W 9 11 1015.2 - 4.8 - - - - - - -
28/12:30am 12.7 W 9 11 1015.4 - 4.8 - - - - - - -
28/12:00am 12.9 WSW 13 15 1015.3 - 4.8 - - - - - - -
 
Date/Time
EST
Temp

°C
Wind Pressure Rain
since 9am
mm
Weather Cloud Vis
km
Sea
Height
m
Swell
Dir
 
Speed
knots
Gust
knots
hPa Trend Height
m
Period
s
Dir
27/11:30pm 12.5 W 8 11 1015.6 - 4.8 - - - - - - -
27/11:00pm 12.4 WSW 15 18 1015.6 - 4.8 - - - - - - -
27/10:30pm 12.5 SW 12 15 1015.6 - 4.8 - - - - - - -
27/10:00pm 12.4 SW 11 14 1015.8 - 4.8 - - - - - - -
27/09:30pm 12.6 SW 12 15 1016.4 - 4.8 - - - - - - -
27/09:00pm 12.8 SW 11 15 1016.1 - 4.8 - - - - - - -
27/08:30pm 12.9 SW 18 22 1015.7 - 4.8 - - - - - - -
27/08:00pm 12.8 SW 20 25 1015.6 - 4.8 - - - - - - -
27/07:30pm 12.7 SSW 22 27 1014.9 - 4.8 - - - - - - -
27/07:00pm 12.7 SW 19 24 1015.2 - 4.8 - - - - - - -
27/06:30pm 13.2 SSW 22 27 1015.1 - 4.4 - - - - - - -
27/06:00pm 13.3 SW 14 19 1014.6 - 4.2 Rain - - - - - -
27/05:30pm 12.1 SW 16 21 1014.4 - 2.2 - - - - - - -
27/05:06pm 14.3 SW 14 28 1014.4 - 0.0 - - - - - - -
27/05:05pm 15.1 SSW 12 25 1014.4 - 0.0 - - - - - - -
27/05:00pm 15.3 S 9 12 1014.2 - 0.0 - - - - - - -
27/04:30pm 15.6 S 9 12 1013.7 - 0.0 - - - - - - -
27/04:00pm 15.9 SSE 7 9 1013.6 - 0.0 - - - - - - -
27/03:30pm 15.9 ESE 6 7 1013.4 - 0.0 - - - - - - -
27/03:00pm 16.1 ESE 4 6 1013.9 - 0.0 - - - - - - -
27/02:30pm 16.3 ESE 4 5 1014.2 - 0.0 - - - - - - -
27/02:00pm 15.7 ESE 5 6 1014.3 - 0.0 - - - - - - -
27/01:30pm 15.9 ESE 6 7 1014.5 - 0.0 - - - - - - -
27/01:00pm 16.5 SE 5 6 1014.9 - 0.0 - - - - - - -
27/12:30pm 15.9 SE 5 6 1015.5 - 0.0 - - - - - - -
27/12:00pm 16.2 SE 5 7 1016.2 - 0.0 - - - - - - -
27/11:30am 16.6 SSW 4 5 1016.9 - 0.0 - - - - - - -
27/11:00am 17.4 WSW 5 7 1017.4 - 0.0 - - - - - - -
27/10:30am 16.8 WSW 6 7 1017.5 - 0.0 - - - - - - -
27/10:00am 16.5 WSW 4 6 1017.8 - 0.0 - - - - - - -
27/09:30am 16.1 WSW 8 10 1018.3 - 0.0 - - - - - - -
27/09:00am 15.0 SW 9 11 1018.4 - 4.6 - - - - - - -
27/08:30am 13.9 SW 9 11 1018.7 - 4.6 - - - - - - -
27/08:00am 13.5 SW 11 13 1018.8 - 4.6 - - - - - - -
27/07:30am 13.5 SW 11 13 1018.8 - 4.6 - - - - - - -
27/07:00am 13.3 SW 11 13 1018.5 - 4.6 - - - - - - -
27/06:30am 13.1 SW 12 14 1018.4 - 4.6 - - - - - - -
27/06:00am 13.2 SW 12 14 1018.6 - 4.6 - - - - - - -
27/05:30am 13.1 WSW 13 15 1018.6 - 4.6 - - - - - - -
27/05:00am 13.1 WSW 14 16 1018.5 - 4.6 - - - - - - -
27/04:30am 12.9 SW 15 19 1018.2 - 4.6 - - - - - - -
27/04:00am 13.0 SW 14 16 1018.7 - 4.2 - - - - - - -
27/03:30am 12.9 SW 13 16 1018.9 - 4.2 - - - - - - -
27/03:00am 13.1 SW 14 17 1019.2 - 4.2 - - - - - - -
27/02:30am 13.0 SW 15 17 1019.7 - 4.2 - - - - - - -
27/02:00am 13.2 SW 15 17 1020.0 - 4.2 - - - - - - -
27/01:30am 13.4 SW 14 17 1020.3 - 4.2 - - - - - - -
27/01:00am 13.8 SSW 13 17 1020.5 - 4.2 - - - - - - -
27/12:30am 13.9 SSE 7 13 1021.0 - 3.6 - - - - - - -
27/12:00am 13.9 SSE 11 13 1021.2 - 1.6 - - - - - - -
 
Date/Time
EST
Temp

°C
Wind Pressure Rain
since 9am
mm
Weather Cloud Vis
km
Sea
Height
m
Swell
Dir
 
Speed
knots
Gust
knots
hPa Trend Height
m
Period
s
Dir
26/11:30pm 13.9 ESE 14 16 1021.4 - 1.6 - - - - - - -
26/11:00pm 14.2 S 4 10 1021.8 - 1.6 - - - - - - -
26/10:30pm 14.0 SSE 10 11 1022.2 - 1.4 - - - - - - -
26/10:00pm 14.4 S 9 11 1022.7 - 1.4 - - - - - - -
26/09:30pm 14.2 S 9 11 1023.0 - 1.4 - - - - - - -
26/09:00pm 14.4 SSE 13 16 1022.9 - 1.4 - - - - - - -
26/08:30pm 14.6 SE 16 18 1022.9 - 1.4 - - - - - - -
26/08:00pm 14.4 SE 16 18 1023.0 - 1.4 - - - - - - -
26/07:30pm 14.3 SSE 16 21 1022.8 - 1.2 - - - - - - -
26/07:00pm 14.3 SE 18 21 1022.7 - 1.2 - - - - - - -
26/06:30pm 14.2 SE 20 24 1022.5 - 0.8 - - - - - - -
26/06:00pm 14.6 SE 21 25 1022.2 - 0.6 - - - - - - -
26/05:30pm 14.5 SE 22 26 1022.2 - 0.6 - - - - - - -
26/05:00pm 14.4 SE 22 25 1022.1 - 0.6 - - - - - - -
26/04:30pm 14.2 SSE 17 21 1022.2 - 0.6 - - - - - - -
26/04:00pm 13.6 SE 17 22 1022.4 - 0.4 - - - - - - -
26/03:30pm 14.3 SE 21 25 1022.2 - 0.0 - - - - - - -
26/03:23pm 14.7 SSE 21 24 1022.2 - 0.0 - - - - - - -
26/03:00pm 14.7 SSE 16 19 1022.3 - 0.0 - - - - - - -
26/02:30pm 14.4 SE 20 24 1022.5 - 0.0 - - - - - - -
26/02:00pm 14.5 SE 19 22 1022.6 - 0.0 - - - - - - -
26/01:30pm 13.8 SE 20 25 1022.8 - 0.0 - - - - - - -
26/01:00pm 13.6 SE 23 26 1023.0 - 0.0 - - - - - - -
26/12:30pm 14.7 SE 23 26 1023.3 - 0.0 - - - - - - -
26/12:00pm 15.3 SE 24 27 1023.7 - 0.0 - - - - - - -
26/11:30am 15.2 SE 24 28 1024.1 - 0.0 - - - - - - -
26/11:00am 14.7 SE 25 29 1024.2 - 0.0 - - - - - - -
26/10:30am 14.5 SE 27 30 1024.3 - 0.0 - - - - - - -
26/10:00am 14.4 SE 26 31 1024.4 - 0.0 - - - - - - -
26/09:30am 14.5 SE 26 30 1024.3 - 0.0 - - - - - - -
26/09:00am 14.3 SE 27 31 1024.2 - 34.2 - - - - - - -
26/08:30am 14.3 SE 26 32 1024.1 - 34.2 - - - - - - -

Other Formats:

Comma delimited format used in spreadsheet applications
http://www.bom.gov.au/fwo/IDN60701/IDN60701.94939.axf

JavaScript Object Notation format (JSON) in row-major order
http://www.bom.gov.au/fwo/IDN60701/IDN60701.94939.json